KPIH/PIH METAR and TAF weather

Enter ICAO airport designator
Station Type Date Time Source
KPIH METAR 2021/02/24 17:53 UTC NOAA

KPIH 241753Z VRB03KT 10SM FEW045 M01/M09 A3022 RMK AO2 SLP260 T10111089 11011 21078 51018


Station Type Date Time Source
KPIH Decoded METAR 2021/02/24 17:53 UTC NOAA

POCATELLO REGIONAL AIRPORT, ID, United States (KPIH) 42-55N 112-36W 1359M
Feb 24, 2021 - 12:53 PM EST / 2021.02.24 1753 UTC
Wind: Variable at 3 MPH (3 KT):0
Visibility: 10 mile(s):0
Sky conditions: mostly clear
Temperature: 30.0 F (-1.1 C)
Dew Point: 16.0 F (-8.9 C)
Relative Humidity: 55%
Pressure (altimeter): 30.22 in. Hg (1023 hPa)
Pressure tendency: 0.05 inches (1.8 hPa) higher than three hours ago
ob: KPIH 241753Z VRB03KT 10SM FEW045 M01/M09 A3022 RMK AO2 SLP260 T10111089 11011 21078 51018
cycle: 18

Station Type Date Time Source
KPIH TAF 2021/02/24 18:33 UTC NOAA

TAF KPIH 241730Z 2418/2518 34007KT P6SM FEW070
FM250200 23007KT P6SM SKC

Example: see airport list